sensor_id;sensor_type;location;lat;lon;timestamp;pressure;altitude;pressure_sealevel;temperature;humidity
40994;BME280;26722;43.212;27.932;2023-02-27T00:00:07;55014.75;;;-146.72;46.34
40994;BME280;26722;43.212;27.932;2023-02-27T00:02:48;55018.97;;;-146.72;46.32
40994;BME280;26722;43.212;27.932;2023-02-27T00:05:14;55027.41;;;-146.72;46.15
40994;BME280;26722;43.212;27.932;2023-02-27T00:07:40;54995.75;;;-146.72;46.11
40994;BME280;26722;43.212;27.932;2023-02-27T00:10:08;55033.75;;;-146.72;46.13
40994;BME280;26722;43.212;27.932;2023-02-27T00:12:34;55010.53;;;-146.72;46.01
40994;BME280;26722;43.212;27.932;2023-02-27T00:15:08;55014.75;;;-146.72;46.18
40994;BME280;26722;43.212;27.932;2023-02-27T00:17:34;55006.31;;;-146.72;46.12
40994;BME280;26722;43.212;27.932;2023-02-27T00:20:00;55012.63;;;-146.72;46.31
40994;BME280;26722;43.212;27.932;2023-02-27T00:22:26;55014.75;;;-146.72;46.22
40994;BME280;26722;43.212;27.932;2023-02-27T00:24:51;55014.75;;;-146.72;46.31
40994;BME280;26722;43.212;27.932;2023-02-27T00:27:16;55023.19;;;-146.72;46.21
40994;BME280;26722;43.212;27.932;2023-02-27T00:29:42;54999.97;;;-146.72;46.41
40994;BME280;26722;43.212;27.932;2023-02-27T00:32:07;55002.09;;;-146.72;46.48
40994;BME280;26722;43.212;27.932;2023-02-27T00:34:33;55010.53;;;-146.72;46.68
40994;BME280;26722;43.212;27.932;2023-02-27T00:36:58;55010.53;;;-146.72;46.62
40994;BME280;26722;43.212;27.932;2023-02-27T00:39:23;55002.09;;;-146.72;46.77
40994;BME280;26722;43.212;27.932;2023-02-27T00:41:49;55023.19;;;-146.72;46.93
40994;BME280;26722;43.212;27.932;2023-02-27T00:44:14;55006.31;;;-146.72;46.92
40994;BME280;26722;43.212;27.932;2023-02-27T00:46:40;55006.31;;;-146.72;46.99
40994;BME280;26722;43.212;27.932;2023-02-27T00:49:05;55023.19;;;-146.72;46.90
40994;BME280;26722;43.212;27.932;2023-02-27T00:51:31;55027.41;;;-146.72;46.98
40994;BME280;26722;43.212;27.932;2023-02-27T00:53:56;55014.75;;;-146.72;47.01
40994;BME280;26722;43.212;27.932;2023-02-27T00:56:21;55012.63;;;-146.72;47.04
40994;BME280;26722;43.212;27.932;2023-02-27T00:58:47;55023.19;;;-146.72;46.98
40994;BME280;26722;43.212;27.932;2023-02-27T01:01:12;55025.31;;;-146.72;47.05
40994;BME280;26722;43.212;27.932;2023-02-27T01:03:39;55006.31;;;-146.72;47.08
40994;BME280;26722;43.212;27.932;2023-02-27T01:06:05;55023.19;;;-146.72;47.12
40994;BME280;26722;43.212;27.932;2023-02-27T01:08:30;55033.75;;;-146.72;47.14
40994;BME280;26722;43.212;27.932;2023-02-27T01:10:56;55027.41;;;-146.72;47.14
40994;BME280;26722;43.212;27.932;2023-02-27T01:13:22;55021.09;;;-146.72;47.09
40994;BME280;26722;43.212;27.932;2023-02-27T01:15:48;55025.31;;;-146.72;47.21
40994;BME280;26722;43.212;27.932;2023-02-27T01:18:13;55010.53;;;-146.72;47.05
40994;BME280;26722;43.212;27.932;2023-02-27T01:20:39;54989.41;;;-146.72;46.99
40994;BME280;26722;43.212;27.932;2023-02-27T01:23:05;55010.53;;;-146.72;46.84
40994;BME280;26722;43.212;27.932;2023-02-27T01:25:30;55018.97;;;-146.72;46.90
40994;BME280;26722;43.212;27.932;2023-02-27T01:27:56;55014.75;;;-146.72;46.92
40994;BME280;26722;43.212;27.932;2023-02-27T01:30:21;55014.75;;;-146.72;46.95
40994;BME280;26722;43.212;27.932;2023-02-27T01:32:47;54999.97;;;-146.72;46.84
40994;BME280;26722;43.212;27.932;2023-02-27T01:35:12;54993.63;;;-146.72;46.91
40994;BME280;26722;43.212;27.932;2023-02-27T01:37:38;55033.75;;;-146.72;46.89
40994;BME280;26722;43.212;27.932;2023-02-27T01:40:05;55010.53;;;-146.72;47.10
40994;BME280;26722;43.212;27.932;2023-02-27T01:42:31;55006.31;;;-146.72;47.08
40994;BME280;26722;43.212;27.932;2023-02-27T01:45:34;55014.75;;;-146.72;47.09
40994;BME280;26722;43.212;27.932;2023-02-27T01:48:04;55010.53;;;-146.72;47.13
40994;BME280;26722;43.212;27.932;2023-02-27T01:50:31;55018.97;;;-146.72;47.14
40994;BME280;26722;43.212;27.932;2023-02-27T01:52:59;55010.53;;;-146.72;47.17
40994;BME280;26722;43.212;27.932;2023-02-27T01:55:27;55025.31;;;-146.72;47.11
40994;BME280;26722;43.212;27.932;2023-02-27T01:57:53;55035.88;;;-146.72;47.11
40994;BME280;26722;43.212;27.932;2023-02-27T02:00:19;55016.88;;;-146.72;47.36
40994;BME280;26722;43.212;27.932;2023-02-27T02:03:21;55031.66;;;-146.72;47.31
40994;BME280;26722;43.212;27.932;2023-02-27T02:05:44;55027.41;;;-146.72;47.41
40994;BME280;26722;43.212;27.932;2023-02-27T02:08:14;55021.09;;;-146.72;47.44
40994;BME280;26722;43.212;27.932;2023-02-27T02:10:42;55029.53;;;-146.72;47.53
40994;BME280;26722;43.212;27.932;2023-02-27T02:13:08;54997.88;;;-146.72;47.58
40994;BME280;26722;43.212;27.932;2023-02-27T02:15:38;55010.53;;;-146.72;47.49
40994;BME280;26722;43.212;27.932;2023-02-27T02:18:23;55021.09;;;-146.72;47.57
40994;BME280;26722;43.212;27.932;2023-02-27T02:35:41;55035.88;;;-146.72;48.27
40994;BME280;26722;43.212;27.932;2023-02-27T02:46:24;55031.66;;;-146.72;48.47
40994;BME280;26722;43.212;27.932;2023-02-27T02:49:15;55052.75;;;-146.72;48.58
40994;BME280;26722;43.212;27.932;2023-02-27T02:51:59;55016.88;;;-146.72;48.75
40994;BME280;26722;43.212;27.932;2023-02-27T02:57:18;55012.63;;;-146.72;48.85
40994;BME280;26722;43.212;27.932;2023-02-27T02:59:55;55037.97;;;-146.72;48.85
40994;BME280;26722;43.212;27.932;2023-02-27T03:02:30;55027.41;;;-146.72;48.86
40994;BME280;26722;43.212;27.932;2023-02-27T03:05:06;55006.31;;;-146.72;48.79
40994;BME280;26722;43.212;27.932;2023-02-27T03:07:48;55031.66;;;-146.72;48.82
40994;BME280;26722;43.212;27.932;2023-02-27T03:10:29;55021.09;;;-146.72;48.88
40994;BME280;26722;43.212;27.932;2023-02-27T03:13:36;55031.66;;;-146.72;49.01
40994;BME280;26722;43.212;27.932;2023-02-27T03:16:09;55029.53;;;-146.72;49.22
40994;BME280;26722;43.212;27.932;2023-02-27T03:21:51;55027.41;;;-146.72;49.21
40994;BME280;26722;43.212;27.932;2023-02-27T03:24:29;55016.88;;;-146.72;49.33
40994;BME280;26722;43.212;27.932;2023-02-27T03:26:58;55031.66;;;-146.72;49.40
40994;BME280;26722;43.212;27.932;2023-02-27T03:30:48;55021.09;;;-146.72;49.33
40994;BME280;26722;43.212;27.932;2023-02-27T03:32:55;55023.19;;;-146.72;49.26
40994;BME280;26722;43.212;27.932;2023-02-27T03:36:10;55052.75;;;-146.72;49.46
40994;BME280;26722;43.212;27.932;2023-02-27T03:38:23;55016.88;;;-146.72;49.52
40994;BME280;26722;43.212;27.932;2023-02-27T03:43:43;55027.41;;;-146.72;49.51
40994;BME280;26722;43.212;27.932;2023-02-27T03:46:14;55031.66;;;-146.72;49.32
40994;BME280;26722;43.212;27.932;2023-02-27T03:48:41;55035.88;;;-146.72;49.19
40994;BME280;26722;43.212;27.932;2023-02-27T03:51:11;55046.41;;;-146.72;49.15
40994;BME280;26722;43.212;27.932;2023-02-27T03:54:05;55029.53;;;-146.72;49.04
40994;BME280;26722;43.212;27.932;2023-02-27T03:56:53;55021.09;;;-146.72;49.00
40994;BME280;26722;43.212;27.932;2023-02-27T03:59:21;55027.41;;;-146.72;48.92
40994;BME280;26722;43.212;27.932;2023-02-27T04:01:48;55031.66;;;-146.72;48.87
40994;BME280;26722;43.212;27.932;2023-02-27T04:04:15;55029.53;;;-146.72;48.84
40994;BME280;26722;43.212;27.932;2023-02-27T04:06:47;55023.19;;;-146.72;48.75
40994;BME280;26722;43.212;27.932;2023-02-27T04:12:42;55037.97;;;-146.72;48.92
40994;BME280;26722;43.212;27.932;2023-02-27T04:22:58;55031.66;;;-146.72;48.65
40994;BME280;26722;43.212;27.932;2023-02-27T04:28:26;55014.75;;;-146.72;48.60
40994;BME280;26722;43.212;27.932;2023-02-27T04:31:07;55040.09;;;-146.72;48.63
40994;BME280;26722;43.212;27.932;2023-02-27T04:33:45;55027.41;;;-146.72;48.66
40994;BME280;26722;43.212;27.932;2023-02-27T04:39:06;55042.19;;;-146.72;48.74
40994;BME280;26722;43.212;27.932;2023-02-27T04:41:41;55035.88;;;-146.72;48.81
40994;BME280;26722;43.212;27.932;2023-02-27T04:44:09;55052.75;;;-146.72;48.78
40994;BME280;26722;43.212;27.932;2023-02-27T04:46:38;55044.31;;;-146.72;48.72
40994;BME280;26722;43.212;27.932;2023-02-27T04:49:09;55054.88;;;-146.72;48.86
40994;BME280;26722;43.212;27.932;2023-02-27T04:51:51;55050.66;;;-146.72;49.05
40994;BME280;26722;43.212;27.932;2023-02-27T04:54:23;55037.97;;;-146.72;49.26
40994;BME280;26722;43.212;27.932;2023-02-27T04:56:53;55048.53;;;-146.72;49.68
40994;BME280;26722;43.212;27.932;2023-02-27T04:59:28;55048.53;;;-146.72;49.88
40994;BME280;26722;43.212;27.932;2023-02-27T05:02:05;55052.75;;;-146.72;50.03
40994;BME280;26722;43.212;27.932;2023-02-27T05:04:36;55063.31;;;-146.72;50.17
40994;BME280;26722;43.212;27.932;2023-02-27T05:07:04;55052.75;;;-146.72;50.28
40994;BME280;26722;43.212;27.932;2023-02-27T05:09:47;55052.75;;;-146.72;50.17
40994;BME280;26722;43.212;27.932;2023-02-27T05:12:19;55035.88;;;-146.72;50.32
40994;BME280;26722;43.212;27.932;2023-02-27T05:15:13;55054.88;;;-146.72;50.19
40994;BME280;26722;43.212;27.932;2023-02-27T05:20:11;55054.88;;;-146.72;49.99
40994;BME280;26722;43.212;27.932;2023-02-27T05:27:58;55031.66;;;-146.72;49.30
40994;BME280;26722;43.212;27.932;2023-02-27T05:33:42;55037.97;;;-146.72;48.52
40994;BME280;26722;43.212;27.932;2023-02-27T05:36:17;55042.19;;;-146.72;48.57
40994;BME280;26722;43.212;27.932;2023-02-27T05:38:48;55033.75;;;-146.72;48.64
40994;BME280;26722;43.212;27.932;2023-02-27T05:41:20;55023.19;;;-146.72;48.60
40994;BME280;26722;43.212;27.932;2023-02-27T05:43:54;55027.41;;;-146.72;48.42
40994;BME280;26722;43.212;27.932;2023-02-27T05:46:28;55018.97;;;-146.72;48.29
40994;BME280;26722;43.212;27.932;2023-02-27T05:49:15;55042.19;;;-146.72;48.37
40994;BME280;26722;43.212;27.932;2023-02-27T05:51:43;55035.88;;;-146.72;48.20
40994;BME280;26722;43.212;27.932;2023-02-27T05:54:37;55018.97;;;-146.72;48.14
40994;BME280;26722;43.212;27.932;2023-02-27T05:57:02;55023.19;;;-146.72;48.07
40994;BME280;26722;43.212;27.932;2023-02-27T05:59:39;55048.53;;;-146.72;48.18
40994;BME280;26722;43.212;27.932;2023-02-27T06:02:10;55035.88;;;-146.72;48.00
40994;BME280;26722;43.212;27.932;2023-02-27T06:04:36;55023.19;;;-146.72;47.76
40994;BME280;26722;43.212;27.932;2023-02-27T06:07:02;54997.88;;;-146.72;47.77
40994;BME280;26722;43.212;27.932;2023-02-27T06:09:32;55023.19;;;-146.72;47.62
40994;BME280;26722;43.212;27.932;2023-02-27T06:11:59;55031.66;;;-146.72;47.56
40994;BME280;26722;43.212;27.932;2023-02-27T06:14:25;55010.53;;;-146.72;47.58
40994;BME280;26722;43.212;27.932;2023-02-27T06:16:51;55035.88;;;-146.72;47.40
40994;BME280;26722;43.212;27.932;2023-02-27T06:19:16;55018.97;;;-146.72;47.52
40994;BME280;26722;43.212;27.932;2023-02-27T06:21:42;54999.97;;;-146.72;47.75
40994;BME280;26722;43.212;27.932;2023-02-27T06:24:07;55012.63;;;-146.72;47.57
40994;BME280;26722;43.212;27.932;2023-02-27T06:26:33;55023.19;;;-146.72;47.39
40994;BME280;26722;43.212;27.932;2023-02-27T06:28:58;55002.09;;;-146.72;47.12
40994;BME280;26722;43.212;27.932;2023-02-27T06:31:24;55021.09;;;-146.72;46.89
40994;BME280;26722;43.212;27.932;2023-02-27T06:33:50;55031.66;;;-146.72;46.81
40994;BME280;26722;43.212;27.932;2023-02-27T06:36:16;55004.19;;;-146.72;46.79
40994;BME280;26722;43.212;27.932;2023-02-27T06:38:41;55018.97;;;-146.72;46.65
40994;BME280;26722;43.212;27.932;2023-02-27T06:41:07;55014.75;;;-146.72;46.63
40994;BME280;26722;43.212;27.932;2023-02-27T06:43:33;55002.09;;;-146.72;46.50
40994;BME280;26722;43.212;27.932;2023-02-27T06:46:00;54997.88;;;-146.72;46.58
40994;BME280;26722;43.212;27.932;2023-02-27T06:48:26;55014.75;;;-146.72;46.28
40994;BME280;26722;43.212;27.932;2023-02-27T06:50:55;54980.97;;;-146.72;45.93
40994;BME280;26722;43.212;27.932;2023-02-27T06:53:21;54970.41;;;-146.72;45.41
40994;BME280;26722;43.212;27.932;2023-02-27T06:55:47;54980.97;;;-146.72;45.30
40994;BME280;26722;43.212;27.932;2023-02-27T06:58:14;54985.19;;;-146.72;44.85
40994;BME280;26722;43.212;27.932;2023-02-27T07:00:40;54980.97;;;-146.72;44.67
40994;BME280;26722;43.212;27.932;2023-02-27T07:03:05;54980.97;;;-146.72;44.41
40994;BME280;26722;43.212;27.932;2023-02-27T07:05:31;54957.75;;;-146.72;43.80
40994;BME280;26722;43.212;27.932;2023-02-27T07:07:56;54957.75;;;-146.72;43.49
40994;BME280;26722;43.212;27.932;2023-02-27T07:10:22;54966.19;;;-146.72;42.95
40994;BME280;26722;43.212;27.932;2023-02-27T07:12:48;54959.88;;;-146.72;42.89
40994;BME280;26722;43.212;27.932;2023-02-27T07:15:14;54959.88;;;-146.72;42.47
40994;BME280;26722;43.212;27.932;2023-02-27T07:17:39;54974.63;;;-146.72;42.34
40994;BME280;26722;43.212;27.932;2023-02-27T07:20:07;54964.09;;;-146.72;42.57
40994;BME280;26722;43.212;27.932;2023-02-27T07:22:34;54964.09;;;-146.72;42.53
40994;BME280;26722;43.212;27.932;2023-02-27T07:24:59;54968.31;;;-146.72;42.69
40994;BME280;26722;43.212;27.932;2023-02-27T07:27:25;54949.31;;;-146.72;42.35
40994;BME280;26722;43.212;27.932;2023-02-27T07:29:50;54955.63;;;-146.72;42.38
40994;BME280;26722;43.212;27.932;2023-02-27T07:32:17;54945.09;;;-146.72;42.34
40994;BME280;26722;43.212;27.932;2023-02-27T07:34:42;54955.63;;;-146.72;42.65
40994;BME280;26722;43.212;27.932;2023-02-27T07:37:08;54947.19;;;-146.72;42.83
40994;BME280;26722;43.212;27.932;2023-02-27T07:39:33;54945.09;;;-146.72;42.67
40994;BME280;26722;43.212;27.932;2023-02-27T07:41:59;54955.63;;;-146.72;42.59
40994;BME280;26722;43.212;27.932;2023-02-27T07:44:24;54964.09;;;-146.72;42.96
40994;BME280;26722;43.212;27.932;2023-02-27T07:46:50;54959.88;;;-146.72;43.54
40994;BME280;26722;43.212;27.932;2023-02-27T07:49:15;54964.09;;;-146.72;43.87
40994;BME280;26722;43.212;27.932;2023-02-27T07:51:40;54953.53;;;-146.72;44.34
40994;BME280;26722;43.212;27.932;2023-02-27T07:54:06;54955.63;;;-146.72;44.45
40994;BME280;26722;43.212;27.932;2023-02-27T07:56:32;54976.75;;;-146.72;44.50
40994;BME280;26722;43.212;27.932;2023-02-27T07:58:57;54974.63;;;-146.72;44.73
40994;BME280;26722;43.212;27.932;2023-02-27T08:01:23;54964.09;;;-146.72;44.74
40994;BME280;26722;43.212;27.932;2023-02-27T08:03:48;54970.41;;;-146.72;44.70
40994;BME280;26722;43.212;27.932;2023-02-27T08:06:14;54968.31;;;-146.72;44.94
40994;BME280;26722;43.212;27.932;2023-02-27T08:08:39;54980.97;;;-146.72;44.98
40994;BME280;26722;43.212;27.932;2023-02-27T08:11:04;54966.19;;;-146.72;45.01
40994;BME280;26722;43.212;27.932;2023-02-27T08:13:30;54972.53;;;-146.72;44.98
40994;BME280;26722;43.212;27.932;2023-02-27T08:15:55;54976.75;;;-146.72;45.34
40994;BME280;26722;43.212;27.932;2023-02-27T08:18:22;54976.75;;;-146.72;45.66
40994;BME280;26722;43.212;27.932;2023-02-27T08:20:47;54974.63;;;-146.72;45.51
40994;BME280;26722;43.212;27.932;2023-02-27T08:23:13;54970.41;;;-146.72;45.60
40994;BME280;26722;43.212;27.932;2023-02-27T08:25:38;54964.09;;;-146.72;45.77
40994;BME280;26722;43.212;27.932;2023-02-27T08:28:04;54968.31;;;-146.72;45.66
40994;BME280;26722;43.212;27.932;2023-02-27T08:30:29;54959.88;;;-146.72;45.14
40994;BME280;26722;43.212;27.932;2023-02-27T08:32:55;54949.31;;;-146.72;45.05
40994;BME280;26722;43.212;27.932;2023-02-27T08:35:21;54966.19;;;-146.72;44.90
40994;BME280;26722;43.212;27.932;2023-02-27T08:37:47;54959.88;;;-146.72;45.04
40994;BME280;26722;43.212;27.932;2023-02-27T08:40:14;54951.41;;;-146.72;45.16
40994;BME280;26722;43.212;27.932;2023-02-27T08:42:40;54972.53;;;-146.72;45.54
40994;BME280;26722;43.212;27.932;2023-02-27T08:45:07;54968.31;;;-146.72;45.55
40994;BME280;26722;43.212;27.932;2023-02-27T08:47:32;54983.09;;;-146.72;46.22
40994;BME280;26722;43.212;27.932;2023-02-27T08:49:58;54980.97;;;-146.72;46.53
40994;BME280;26722;43.212;27.932;2023-02-27T08:52:23;55012.63;;;-146.72;47.31
40994;BME280;26722;43.212;27.932;2023-02-27T08:54:49;55012.63;;;-146.72;47.50
40994;BME280;26722;43.212;27.932;2023-02-27T08:57:14;55035.88;;;-146.72;47.88
40994;BME280;26722;43.212;27.932;2023-02-27T08:59:40;55033.75;;;-146.72;48.07
40994;BME280;26722;43.212;27.932;2023-02-27T09:02:05;55018.97;;;-146.72;47.75
40994;BME280;26722;43.212;27.932;2023-02-27T09:04:31;55035.88;;;-146.72;47.59
40994;BME280;26722;43.212;27.932;2023-02-27T09:06:56;55018.97;;;-146.72;47.13
40994;BME280;26722;43.212;27.932;2023-02-27T09:09:22;55014.75;;;-146.72;46.99
40994;BME280;26722;43.212;27.932;2023-02-27T09:11:49;55031.66;;;-146.72;46.63
40994;BME280;26722;43.212;27.932;2023-02-27T09:14:15;55027.41;;;-146.72;45.88
40994;BME280;26722;43.212;27.932;2023-02-27T09:16:40;55014.75;;;-146.72;45.58
40994;BME280;26722;43.212;27.932;2023-02-27T09:19:06;55002.09;;;-146.72;45.09
40994;BME280;26722;43.212;27.932;2023-02-27T09:21:32;55002.09;;;-146.72;44.32
40994;BME280;26722;43.212;27.932;2023-02-27T09:23:57;55018.97;;;-146.72;44.18
40994;BME280;26722;43.212;27.932;2023-02-27T09:26:24;54997.88;;;-146.72;43.89
40994;BME280;26722;43.212;27.932;2023-02-27T09:28:54;55012.63;;;-146.72;43.36
40994;BME280;26722;43.212;27.932;2023-02-27T09:31:20;54997.88;;;-146.72;43.50
40994;BME280;26722;43.212;27.932;2023-02-27T09:33:46;54989.41;;;-146.72;43.37
40994;BME280;26722;43.212;27.932;2023-02-27T09:36:11;54980.97;;;-146.72;43.19
40994;BME280;26722;43.212;27.932;2023-02-27T09:38:37;54989.41;;;-146.72;42.64
40994;BME280;26722;43.212;27.932;2023-02-27T09:41:04;55010.53;;;-146.72;43.12
40994;BME280;26722;43.212;27.932;2023-02-27T09:43:45;54999.97;;;-146.72;42.87
40994;BME280;26722;43.212;27.932;2023-02-27T09:46:18;54993.63;;;-146.72;42.72
40994;BME280;26722;43.212;27.932;2023-02-27T09:48:57;54978.88;;;-146.72;42.14
40994;BME280;26722;43.212;27.932;2023-02-27T09:51:23;54980.97;;;-146.72;42.17
40994;BME280;26722;43.212;27.932;2023-02-27T09:53:52;54987.31;;;-146.72;42.08
40994;BME280;26722;43.212;27.932;2023-02-27T09:59:22;55002.09;;;-146.72;41.92
40994;BME280;26722;43.212;27.932;2023-02-27T10:02:01;54989.41;;;-146.72;42.19
40994;BME280;26722;43.212;27.932;2023-02-27T10:04:43;54993.63;;;-146.72;41.81
40994;BME280;26722;43.212;27.932;2023-02-27T10:15:38;54985.19;;;-146.72;42.13
40994;BME280;26722;43.212;27.932;2023-02-27T10:18:14;54980.97;;;-146.72;42.01
40994;BME280;26722;43.212;27.932;2023-02-27T10:20:42;54970.41;;;-146.72;42.05
40994;BME280;26722;43.212;27.932;2023-02-27T10:23:15;55006.31;;;-146.72;41.69
40994;BME280;26722;43.212;27.932;2023-02-27T10:25:45;54978.88;;;-146.72;41.66
40994;BME280;26722;43.212;27.932;2023-02-27T10:28:15;54983.09;;;-146.72;41.53
40994;BME280;26722;43.212;27.932;2023-02-27T10:30:45;54989.41;;;-146.72;41.51
40994;BME280;26722;43.212;27.932;2023-02-27T10:33:21;55014.75;;;-146.72;41.71
40994;BME280;26722;43.212;27.932;2023-02-27T10:35:48;54987.31;;;-146.72;41.39
40994;BME280;26722;43.212;27.932;2023-02-27T10:41:05;54993.63;;;-146.72;40.94
40994;BME280;26722;43.212;27.932;2023-02-27T10:43:31;54980.97;;;-146.72;40.78
40994;BME280;26722;43.212;27.932;2023-02-27T10:46:02;54974.63;;;-146.72;40.93
40994;BME280;26722;43.212;27.932;2023-02-27T10:48:31;54976.75;;;-146.72;41.06
40994;BME280;26722;43.212;27.932;2023-02-27T10:51:23;54980.97;;;-146.72;40.86
40994;BME280;26722;43.212;27.932;2023-02-27T10:53:51;54976.75;;;-146.72;40.59
40994;BME280;26722;43.212;27.932;2023-02-27T10:56:35;54970.41;;;-146.72;40.57
40994;BME280;26722;43.212;27.932;2023-02-27T10:59:05;54993.63;;;-146.72;40.54
40994;BME280;26722;43.212;27.932;2023-02-27T11:04:58;54991.53;;;-146.72;41.46
40994;BME280;26722;43.212;27.932;2023-02-27T11:10:15;54997.88;;;-146.72;40.92
40994;BME280;26722;43.212;27.932;2023-02-27T11:12:42;54980.97;;;-146.72;40.53
40994;BME280;26722;43.212;27.932;2023-02-27T11:17:39;54970.41;;;-146.72;39.54
40994;BME280;26722;43.212;27.932;2023-02-27T11:23:24;54976.75;;;-146.72;39.62
40994;BME280;26722;43.212;27.932;2023-02-27T11:26:08;54980.97;;;-146.72;39.66
40994;BME280;26722;43.212;27.932;2023-02-27T11:28:34;54949.31;;;-146.72;39.63
40994;BME280;26722;43.212;27.932;2023-02-27T11:31:14;54970.41;;;-146.72;39.26
40994;BME280;26722;43.212;27.932;2023-02-27T11:33:53;54974.63;;;-146.72;39.12
40994;BME280;26722;43.212;27.932;2023-02-27T11:36:20;54976.75;;;-146.72;38.71
40994;BME280;26722;43.212;27.932;2023-02-27T11:38:54;54978.88;;;-146.72;39.00
40994;BME280;26722;43.212;27.932;2023-02-27T11:41:32;54974.63;;;-146.72;39.05
40994;BME280;26722;43.212;27.932;2023-02-27T11:44:00;54980.97;;;-146.72;39.13
40994;BME280;26722;43.212;27.932;2023-02-27T11:46:27;54964.09;;;-146.72;38.59
40994;BME280;26722;43.212;27.932;2023-02-27T11:52:06;54976.75;;;-146.72;38.12
40994;BME280;26722;43.212;27.932;2023-02-27T11:55:05;54964.09;;;-146.72;38.46
40994;BME280;26722;43.212;27.932;2023-02-27T11:57:40;54985.19;;;-146.72;38.14
40994;BME280;26722;43.212;27.932;2023-02-27T12:05:47;54968.31;;;-146.72;38.03
40994;BME280;26722;43.212;27.932;2023-02-27T12:08:24;54972.53;;;-146.72;38.14
40994;BME280;26722;43.212;27.932;2023-02-27T12:13:39;54957.75;;;-146.72;38.29
40994;BME280;26722;43.212;27.932;2023-02-27T12:16:20;54949.31;;;-146.72;38.07
40994;BME280;26722;43.212;27.932;2023-02-27T12:18:54;54959.88;;;-146.72;38.02
40994;BME280;26722;43.212;27.932;2023-02-27T12:21:23;54968.31;;;-146.72;38.02
40994;BME280;26722;43.212;27.932;2023-02-27T12:26:33;54955.63;;;-146.72;37.90
40994;BME280;26722;43.212;27.932;2023-02-27T12:37:04;54959.88;;;-146.72;37.77
40994;BME280;26722;43.212;27.932;2023-02-27T12:39:35;54972.53;;;-146.72;37.82
40994;BME280;26722;43.212;27.932;2023-02-27T12:50:23;54938.75;;;-146.72;37.67
40994;BME280;26722;43.212;27.932;2023-02-27T12:56:02;55004.19;;;-146.72;38.39
40994;BME280;26722;43.212;27.932;2023-02-27T13:04:30;54980.97;;;-146.72;38.03
40994;BME280;26722;43.212;27.932;2023-02-27T13:07:04;54966.19;;;-146.72;38.05
40994;BME280;26722;43.212;27.932;2023-02-27T13:12:09;54953.53;;;-146.72;37.84
40994;BME280;26722;43.212;27.932;2023-02-27T13:17:25;54964.09;;;-146.72;37.66
40994;BME280;26722;43.212;27.932;2023-02-27T13:20:32;54970.41;;;-146.72;37.43
40994;BME280;26722;43.212;27.932;2023-02-27T13:22:55;54949.31;;;-146.72;37.56
40994;BME280;26722;43.212;27.932;2023-02-27T13:25:23;54947.19;;;-146.72;37.77
40994;BME280;26722;43.212;27.932;2023-02-27T13:27:53;54959.88;;;-146.72;37.89
40994;BME280;26722;43.212;27.932;2023-02-27T13:30:38;54951.41;;;-146.72;38.16
40994;BME280;26722;43.212;27.932;2023-02-27T13:33:19;54957.75;;;-146.72;37.86
40994;BME280;26722;43.212;27.932;2023-02-27T13:38:46;54955.63;;;-146.72;37.86
40994;BME280;26722;43.212;27.932;2023-02-27T13:43:54;54983.09;;;-146.72;39.51
40994;BME280;26722;43.212;27.932;2023-02-27T13:48:47;54993.63;;;-146.72;39.89
40994;BME280;26722;43.212;27.932;2023-02-27T13:56:39;54976.75;;;-146.72;39.71
40994;BME280;26722;43.212;27.932;2023-02-27T13:59:16;54993.63;;;-146.72;39.87
40994;BME280;26722;43.212;27.932;2023-02-27T14:01:56;54953.53;;;-146.72;39.99
40994;BME280;26722;43.212;27.932;2023-02-27T14:04:24;54983.09;;;-146.72;40.39
40994;BME280;26722;43.212;27.932;2023-02-27T14:06:59;54985.19;;;-146.72;40.68
40994;BME280;26722;43.212;27.932;2023-02-27T14:09:32;54980.97;;;-146.72;41.10
40994;BME280;26722;43.212;27.932;2023-02-27T14:12:02;54991.53;;;-146.72;41.31
40994;BME280;26722;43.212;27.932;2023-02-27T14:14:46;54997.88;;;-146.72;41.49
40994;BME280;26722;43.212;27.932;2023-02-27T14:20:14;54997.88;;;-146.72;41.77
40994;BME280;26722;43.212;27.932;2023-02-27T14:28:13;55002.09;;;-146.72;42.43
40994;BME280;26722;43.212;27.932;2023-02-27T14:30:59;55002.09;;;-146.72;43.01
40994;BME280;26722;43.212;27.932;2023-02-27T14:33:31;55025.31;;;-146.72;43.24
40994;BME280;26722;43.212;27.932;2023-02-27T14:36:01;55016.88;;;-146.72;43.36
40994;BME280;26722;43.212;27.932;2023-02-27T14:38:28;55014.75;;;-146.72;43.61
40994;BME280;26722;43.212;27.932;2023-02-27T14:43:47;55018.97;;;-146.72;43.86
40994;BME280;26722;43.212;27.932;2023-02-27T14:46:27;55002.09;;;-146.72;44.08
40994;BME280;26722;43.212;27.932;2023-02-27T14:49:06;55012.63;;;-146.72;44.48
40994;BME280;26722;43.212;27.932;2023-02-27T14:51:42;55006.31;;;-146.72;44.59
40994;BME280;26722;43.212;27.932;2023-02-27T14:54:16;55002.09;;;-146.72;45.02
40994;BME280;26722;43.212;27.932;2023-02-27T14:56:56;54997.88;;;-146.72;45.20
40994;BME280;26722;43.212;27.932;2023-02-27T14:59:29;55014.75;;;-146.72;44.58
40994;BME280;26722;43.212;27.932;2023-02-27T15:01:57;55023.19;;;-146.72;44.19
40994;BME280;26722;43.212;27.932;2023-02-27T15:04:25;55027.41;;;-146.72;43.55
40994;BME280;26722;43.212;27.932;2023-02-27T15:06:53;55040.09;;;-146.72;43.62
40994;BME280;26722;43.212;27.932;2023-02-27T15:09:29;55021.09;;;-146.72;43.70
40994;BME280;26722;43.212;27.932;2023-02-27T15:11:57;55035.88;;;-146.72;44.21
40994;BME280;26722;43.212;27.932;2023-02-27T15:14:32;55014.75;;;-146.72;44.45
40994;BME280;26722;43.212;27.932;2023-02-27T15:16:58;55021.09;;;-146.72;45.02
40994;BME280;26722;43.212;27.932;2023-02-27T15:19:26;55056.97;;;-146.72;45.60
40994;BME280;26722;43.212;27.932;2023-02-27T15:21:54;55042.19;;;-146.72;46.65